sensor_id;sensor_type;location;lat;lon;timestamp;temperature;humidity
17815;DHT22;9031;50.974;11.330;2023-06-22T00:01:47;20.90;99.90
17815;DHT22;9031;50.974;11.330;2023-06-22T00:04:13;20.80;99.90
17815;DHT22;9031;50.974;11.330;2023-06-22T00:06:38;20.80;99.90
17815;DHT22;9031;50.974;11.330;2023-06-22T00:09:04;20.80;99.90
17815;DHT22;9031;50.974;11.330;2023-06-22T00:11:29;20.90;99.90
17815;DHT22;9031;50.974;11.330;2023-06-22T00:13:56;20.90;99.90
17815;DHT22;9031;50.974;11.330;2023-06-22T00:16:23;20.80;99.90
17815;DHT22;9031;50.974;11.330;2023-06-22T00:18:48;20.80;99.90
17815;DHT22;9031;50.974;11.330;2023-06-22T00:21:14;20.80;99.90
17815;DHT22;9031;50.974;11.330;2023-06-22T00:23:39;20.70;99.90
17815;DHT22;9031;50.974;11.330;2023-06-22T00:26:06;20.70;99.90
17815;DHT22;9031;50.974;11.330;2023-06-22T00:28:32;20.70;99.90
17815;DHT22;9031;50.974;11.330;2023-06-22T00:30:57;20.50;99.90
17815;DHT22;9031;50.974;11.330;2023-06-22T00:33:23;20.60;99.90
17815;DHT22;9031;50.974;11.330;2023-06-22T00:35:48;20.50;99.90
17815;DHT22;9031;50.974;11.330;2023-06-22T00:38:18;20.40;99.90
17815;DHT22;9031;50.974;11.330;2023-06-22T00:40:43;20.20;99.90
17815;DHT22;9031;50.974;11.330;2023-06-22T00:43:09;20.20;99.90
17815;DHT22;9031;50.974;11.330;2023-06-22T00:45:34;20.20;99.90
17815;DHT22;9031;50.974;11.330;2023-06-22T00:48:01;20.30;99.90
17815;DHT22;9031;50.974;11.330;2023-06-22T00:50:29;20.30;99.90
17815;DHT22;9031;50.974;11.330;2023-06-22T00:53:00;20.30;99.90
17815;DHT22;9031;50.974;11.330;2023-06-22T00:55:26;20.20;99.90
17815;DHT22;9031;50.974;11.330;2023-06-22T00:57:52;20.10;99.90
17815;DHT22;9031;50.974;11.330;2023-06-22T01:00:23;20.20;99.90
17815;DHT22;9031;50.974;11.330;2023-06-22T01:02:50;20.10;99.90
17815;DHT22;9031;50.974;11.330;2023-06-22T01:05:20;20.20;99.90
17815;DHT22;9031;50.974;11.330;2023-06-22T01:12:56;20.10;99.90
17815;DHT22;9031;50.974;11.330;2023-06-22T01:15:29;20.10;99.90
17815;DHT22;9031;50.974;11.330;2023-06-22T01:17:57;20.10;99.90
17815;DHT22;9031;50.974;11.330;2023-06-22T01:20:25;20.10;99.90
17815;DHT22;9031;50.974;11.330;2023-06-22T01:23:15;20.10;99.90
17815;DHT22;9031;50.974;11.330;2023-06-22T01:26:18;20.00;99.90
17815;DHT22;9031;50.974;11.330;2023-06-22T01:28:52;20.00;99.90
17815;DHT22;9031;50.974;11.330;2023-06-22T01:31:24;20.00;99.90
17815;DHT22;9031;50.974;11.330;2023-06-22T01:33:53;20.00;99.90
17815;DHT22;9031;50.974;11.330;2023-06-22T01:36:21;19.90;99.90
17815;DHT22;9031;50.974;11.330;2023-06-22T01:38:48;19.90;99.90
17815;DHT22;9031;50.974;11.330;2023-06-22T01:41:15;19.80;99.90
17815;DHT22;9031;50.974;11.330;2023-06-22T01:43:42;19.70;99.90
17815;DHT22;9031;50.974;11.330;2023-06-22T01:46:08;19.80;99.90
17815;DHT22;9031;50.974;11.330;2023-06-22T01:48:34;19.70;99.90
17815;DHT22;9031;50.974;11.330;2023-06-22T01:51:00;19.60;99.90
17815;DHT22;9031;50.974;11.330;2023-06-22T01:53:25;19.60;99.90
17815;DHT22;9031;50.974;11.330;2023-06-22T01:55:51;19.50;99.90
17815;DHT22;9031;50.974;11.330;2023-06-22T01:58:17;19.40;99.90
17815;DHT22;9031;50.974;11.330;2023-06-22T02:00:50;19.40;99.90
17815;DHT22;9031;50.974;11.330;2023-06-22T02:03:21;19.30;99.90
17815;DHT22;9031;50.974;11.330;2023-06-22T02:05:50;19.30;99.90
17815;DHT22;9031;50.974;11.330;2023-06-22T02:08:23;19.30;99.90
17815;DHT22;9031;50.974;11.330;2023-06-22T02:10:50;19.30;99.90
17815;DHT22;9031;50.974;11.330;2023-06-22T02:13:17;19.30;99.90
17815;DHT22;9031;50.974;11.330;2023-06-22T02:15:43;19.20;99.90
17815;DHT22;9031;50.974;11.330;2023-06-22T02:18:09;19.00;99.90
17815;DHT22;9031;50.974;11.330;2023-06-22T02:20:39;19.00;99.90
17815;DHT22;9031;50.974;11.330;2023-06-22T02:23:05;19.00;99.90
17815;DHT22;9031;50.974;11.330;2023-06-22T02:25:32;18.70;99.90
17815;DHT22;9031;50.974;11.330;2023-06-22T02:27:58;18.50;99.90
17815;DHT22;9031;50.974;11.330;2023-06-22T02:30:23;18.40;99.90
17815;DHT22;9031;50.974;11.330;2023-06-22T02:32:49;18.30;99.90
17815;DHT22;9031;50.974;11.330;2023-06-22T02:35:14;18.30;99.90
17815;DHT22;9031;50.974;11.330;2023-06-22T02:37:40;18.40;99.90
17815;DHT22;9031;50.974;11.330;2023-06-22T02:40:09;18.50;99.90
17815;DHT22;9031;50.974;11.330;2023-06-22T02:42:36;18.50;99.90
17815;DHT22;9031;50.974;11.330;2023-06-22T02:45:02;18.40;99.90
17815;DHT22;9031;50.974;11.330;2023-06-22T02:47:28;18.50;99.90
17815;DHT22;9031;50.974;11.330;2023-06-22T02:49:53;18.40;99.90
17815;DHT22;9031;50.974;11.330;2023-06-22T02:52:19;18.20;99.90
17815;DHT22;9031;50.974;11.330;2023-06-22T02:54:44;18.20;99.90
17815;DHT22;9031;50.974;11.330;2023-06-22T02:57:11;18.40;99.90
17815;DHT22;9031;50.974;11.330;2023-06-22T02:59:40;18.50;99.90
17815;DHT22;9031;50.974;11.330;2023-06-22T03:02:07;18.50;99.90
17815;DHT22;9031;50.974;11.330;2023-06-22T03:04:34;18.60;99.90
17815;DHT22;9031;50.974;11.330;2023-06-22T03:07:00;18.70;99.90
17815;DHT22;9031;50.974;11.330;2023-06-22T03:09:27;18.70;99.90
17815;DHT22;9031;50.974;11.330;2023-06-22T03:11:53;18.40;99.90
17815;DHT22;9031;50.974;11.330;2023-06-22T03:14:19;18.60;99.90
17815;DHT22;9031;50.974;11.330;2023-06-22T03:16:44;18.90;99.90
17815;DHT22;9031;50.974;11.330;2023-06-22T03:19:10;19.00;99.90
17815;DHT22;9031;50.974;11.330;2023-06-22T03:21:37;19.10;99.90
17815;DHT22;9031;50.974;11.330;2023-06-22T03:24:04;19.20;99.90
17815;DHT22;9031;50.974;11.330;2023-06-22T03:26:30;19.10;99.90
17815;DHT22;9031;50.974;11.330;2023-06-22T03:28:55;19.20;99.90
17815;DHT22;9031;50.974;11.330;2023-06-22T03:31:21;19.10;99.90
17815;DHT22;9031;50.974;11.330;2023-06-22T03:33:50;19.20;99.90
17815;DHT22;9031;50.974;11.330;2023-06-22T03:36:17;19.30;99.90
17815;DHT22;9031;50.974;11.330;2023-06-22T03:38:47;19.40;99.90
17815;DHT22;9031;50.974;11.330;2023-06-22T03:41:13;19.40;99.90
17815;DHT22;9031;50.974;11.330;2023-06-22T03:43:38;19.40;99.90
17815;DHT22;9031;50.974;11.330;2023-06-22T03:46:04;19.50;99.90
17815;DHT22;9031;50.974;11.330;2023-06-22T03:48:30;19.60;99.90
17815;DHT22;9031;50.974;11.330;2023-06-22T03:50:55;19.80;99.90
17815;DHT22;9031;50.974;11.330;2023-06-22T03:53:21;19.80;99.90
17815;DHT22;9031;50.974;11.330;2023-06-22T03:55:50;19.90;99.90
17815;DHT22;9031;50.974;11.330;2023-06-22T03:58:17;19.90;99.90
17815;DHT22;9031;50.974;11.330;2023-06-22T04:00:45;19.80;99.90
17815;DHT22;9031;50.974;11.330;2023-06-22T04:03:11;19.90;99.90
17815;DHT22;9031;50.974;11.330;2023-06-22T04:05:38;19.90;99.90
17815;DHT22;9031;50.974;11.330;2023-06-22T04:08:04;19.80;99.90
17815;DHT22;9031;50.974;11.330;2023-06-22T04:10:30;19.80;99.90
17815;DHT22;9031;50.974;11.330;2023-06-22T04:12:55;19.80;99.90
17815;DHT22;9031;50.974;11.330;2023-06-22T04:15:21;19.80;99.90
17815;DHT22;9031;50.974;11.330;2023-06-22T04:17:46;19.70;99.90
17815;DHT22;9031;50.974;11.330;2023-06-22T04:20:12;19.70;99.90
17815;DHT22;9031;50.974;11.330;2023-06-22T04:22:37;19.70;99.90
17815;DHT22;9031;50.974;11.330;2023-06-22T04:25:03;19.70;99.90
17815;DHT22;9031;50.974;11.330;2023-06-22T04:27:29;19.70;99.90
17815;DHT22;9031;50.974;11.330;2023-06-22T04:29:54;19.70;99.90
17815;DHT22;9031;50.974;11.330;2023-06-22T04:32:20;19.50;99.90
17815;DHT22;9031;50.974;11.330;2023-06-22T04:34:45;19.30;99.90
17815;DHT22;9031;50.974;11.330;2023-06-22T04:37:11;19.40;99.90
17815;DHT22;9031;50.974;11.330;2023-06-22T04:39:41;19.60;99.90
17815;DHT22;9031;50.974;11.330;2023-06-22T04:42:07;19.50;99.90
17815;DHT22;9031;50.974;11.330;2023-06-22T04:44:32;19.60;99.90
17815;DHT22;9031;50.974;11.330;2023-06-22T04:47:00;19.70;99.90
17815;DHT22;9031;50.974;11.330;2023-06-22T04:49:27;19.50;99.90
17815;DHT22;9031;50.974;11.330;2023-06-22T04:52:05;19.30;99.90
17815;DHT22;9031;50.974;11.330;2023-06-22T04:54:31;19.00;99.90
17815;DHT22;9031;50.974;11.330;2023-06-22T04:57:01;19.10;99.90
17815;DHT22;9031;50.974;11.330;2023-06-22T04:59:28;19.00;99.90
17815;DHT22;9031;50.974;11.330;2023-06-22T05:01:59;19.30;99.90
17815;DHT22;9031;50.974;11.330;2023-06-22T05:04:25;19.40;99.90
17815;DHT22;9031;50.974;11.330;2023-06-22T05:06:53;19.50;99.90
17815;DHT22;9031;50.974;11.330;2023-06-22T05:09:19;19.60;99.90
17815;DHT22;9031;50.974;11.330;2023-06-22T05:11:45;19.70;99.90
17815;DHT22;9031;50.974;11.330;2023-06-22T05:14:11;19.60;99.90
17815;DHT22;9031;50.974;11.330;2023-06-22T05:16:37;19.70;99.90
17815;DHT22;9031;50.974;11.330;2023-06-22T05:19:02;19.70;99.90
17815;DHT22;9031;50.974;11.330;2023-06-22T05:21:32;19.90;99.90
17815;DHT22;9031;50.974;11.330;2023-06-22T05:23:58;20.10;99.90
17815;DHT22;9031;50.974;11.330;2023-06-22T05:26:29;20.30;99.90
17815;DHT22;9031;50.974;11.330;2023-06-22T05:28:56;20.60;99.90
17815;DHT22;9031;50.974;11.330;2023-06-22T05:31:21;20.60;99.90
17815;DHT22;9031;50.974;11.330;2023-06-22T05:33:48;20.80;99.90
17815;DHT22;9031;50.974;11.330;2023-06-22T05:36:14;20.90;99.90
17815;DHT22;9031;50.974;11.330;2023-06-22T05:38:41;21.10;99.90
17815;DHT22;9031;50.974;11.330;2023-06-22T05:41:07;21.20;99.90
17815;DHT22;9031;50.974;11.330;2023-06-22T05:43:33;21.20;99.90
17815;DHT22;9031;50.974;11.330;2023-06-22T05:46:00;21.40;99.90
17815;DHT22;9031;50.974;11.330;2023-06-22T05:48:26;21.80;99.90
17815;DHT22;9031;50.974;11.330;2023-06-22T05:50:52;22.10;99.90
17815;DHT22;9031;50.974;11.330;2023-06-22T05:53:17;22.30;99.90
17815;DHT22;9031;50.974;11.330;2023-06-22T05:55:43;22.50;99.90
17815;DHT22;9031;50.974;11.330;2023-06-22T05:58:08;22.60;99.90
17815;DHT22;9031;50.974;11.330;2023-06-22T06:00:34;22.60;99.90
17815;DHT22;9031;50.974;11.330;2023-06-22T06:03:00;22.60;99.90
17815;DHT22;9031;50.974;11.330;2023-06-22T06:05:33;22.50;99.90
17815;DHT22;9031;50.974;11.330;2023-06-22T06:08:00;22.50;99.90
17815;DHT22;9031;50.974;11.330;2023-06-22T06:10:26;22.40;99.90
17815;DHT22;9031;50.974;11.330;2023-06-22T06:12:52;22.40;99.90
17815;DHT22;9031;50.974;11.330;2023-06-22T06:15:18;22.40;99.90
17815;DHT22;9031;50.974;11.330;2023-06-22T06:17:48;22.40;99.90
17815;DHT22;9031;50.974;11.330;2023-06-22T06:20:18;22.50;99.90
17815;DHT22;9031;50.974;11.330;2023-06-22T06:22:44;22.60;99.90
17815;DHT22;9031;50.974;11.330;2023-06-22T06:25:10;22.70;99.90
17815;DHT22;9031;50.974;11.330;2023-06-22T06:27:44;22.70;99.90
17815;DHT22;9031;50.974;11.330;2023-06-22T06:30:11;22.80;99.90
17815;DHT22;9031;50.974;11.330;2023-06-22T06:32:36;22.80;99.90
17815;DHT22;9031;50.974;11.330;2023-06-22T06:35:03;22.80;99.90
17815;DHT22;9031;50.974;11.330;2023-06-22T06:37:29;23.00;99.90
17815;DHT22;9031;50.974;11.330;2023-06-22T06:39:55;23.10;99.90
17815;DHT22;9031;50.974;11.330;2023-06-22T06:42:20;23.10;99.90
17815;DHT22;9031;50.974;11.330;2023-06-22T06:44:47;23.20;99.90
17815;DHT22;9031;50.974;11.330;2023-06-22T06:47:13;23.20;99.90
17815;DHT22;9031;50.974;11.330;2023-06-22T06:49:38;23.40;99.90
17815;DHT22;9031;50.974;11.330;2023-06-22T06:52:04;23.60;99.90
17815;DHT22;9031;50.974;11.330;2023-06-22T06:54:30;23.80;99.90
17815;DHT22;9031;50.974;11.330;2023-06-22T06:56:55;23.80;99.90
17815;DHT22;9031;50.974;11.330;2023-06-22T06:59:21;23.50;99.90
17815;DHT22;9031;50.974;11.330;2023-06-22T07:01:47;23.80;99.90
17815;DHT22;9031;50.974;11.330;2023-06-22T07:04:14;24.30;99.90
17815;DHT22;9031;50.974;11.330;2023-06-22T07:06:39;24.80;99.90
17815;DHT22;9031;50.974;11.330;2023-06-22T07:09:05;25.00;99.90
17815;DHT22;9031;50.974;11.330;2023-06-22T07:11:30;25.30;99.90
17815;DHT22;9031;50.974;11.330;2023-06-22T07:13:56;24.80;99.90
17815;DHT22;9031;50.974;11.330;2023-06-22T07:16:21;24.80;99.90
17815;DHT22;9031;50.974;11.330;2023-06-22T07:18:48;24.80;99.90
17815;DHT22;9031;50.974;11.330;2023-06-22T07:21:13;24.90;99.90
17815;DHT22;9031;50.974;11.330;2023-06-22T07:23:39;25.00;99.90
17815;DHT22;9031;50.974;11.330;2023-06-22T07:26:04;25.50;99.90
17815;DHT22;9031;50.974;11.330;2023-06-22T07:28:31;25.60;99.90
17815;DHT22;9031;50.974;11.330;2023-06-22T07:31:02;25.10;99.90
17815;DHT22;9031;50.974;11.330;2023-06-22T07:33:29;24.80;99.90
17815;DHT22;9031;50.974;11.330;2023-06-22T07:35:54;24.80;99.90
17815;DHT22;9031;50.974;11.330;2023-06-22T07:38:20;24.90;99.90
17815;DHT22;9031;50.974;11.330;2023-06-22T07:40:45;25.40;99.90
17815;DHT22;9031;50.974;11.330;2023-06-22T07:43:11;25.50;99.90
17815;DHT22;9031;50.974;11.330;2023-06-22T07:45:38;25.60;99.90
17815;DHT22;9031;50.974;11.330;2023-06-22T07:48:05;25.80;99.90
17815;DHT22;9031;50.974;11.330;2023-06-22T07:50:30;25.60;99.90
17815;DHT22;9031;50.974;11.330;2023-06-22T07:52:56;25.70;99.90
17815;DHT22;9031;50.974;11.330;2023-06-22T07:55:22;25.90;99.90
17815;DHT22;9031;50.974;11.330;2023-06-22T07:57:49;26.00;99.90
17815;DHT22;9031;50.974;11.330;2023-06-22T08:00:17;26.20;99.90
17815;DHT22;9031;50.974;11.330;2023-06-22T08:02:45;26.30;99.90
17815;DHT22;9031;50.974;11.330;2023-06-22T08:05:11;26.70;99.90
17815;DHT22;9031;50.974;11.330;2023-06-22T08:07:38;26.90;99.90
17815;DHT22;9031;50.974;11.330;2023-06-22T08:10:09;27.10;99.90
17815;DHT22;9031;50.974;11.330;2023-06-22T08:12:35;27.10;99.90
17815;DHT22;9031;50.974;11.330;2023-06-22T08:15:01;27.20;99.90
17815;DHT22;9031;50.974;11.330;2023-06-22T08:17:26;27.20;99.90
17815;DHT22;9031;50.974;11.330;2023-06-22T08:19:52;27.50;99.90
17815;DHT22;9031;50.974;11.330;2023-06-22T08:22:17;27.50;99.90
17815;DHT22;9031;50.974;11.330;2023-06-22T08:24:44;27.40;99.90
17815;DHT22;9031;50.974;11.330;2023-06-22T08:27:10;27.60;99.90
17815;DHT22;9031;50.974;11.330;2023-06-22T08:29:40;27.80;99.90
17815;DHT22;9031;50.974;11.330;2023-06-22T08:32:08;28.20;99.90
17815;DHT22;9031;50.974;11.330;2023-06-22T08:34:34;28.10;99.90
17815;DHT22;9031;50.974;11.330;2023-06-22T08:37:00;28.20;99.90
17815;DHT22;9031;50.974;11.330;2023-06-22T08:39:26;28.10;99.90
17815;DHT22;9031;50.974;11.330;2023-06-22T08:41:51;28.10;99.90
17815;DHT22;9031;50.974;11.330;2023-06-22T08:44:18;28.30;99.90
17815;DHT22;9031;50.974;11.330;2023-06-22T08:46:45;28.10;99.90
17815;DHT22;9031;50.974;11.330;2023-06-22T08:49:10;28.30;99.90
17815;DHT22;9031;50.974;11.330;2023-06-22T08:51:36;28.60;99.90
17815;DHT22;9031;50.974;11.330;2023-06-22T08:54:02;28.90;99.90
17815;DHT22;9031;50.974;11.330;2023-06-22T08:56:27;29.00;99.90
17815;DHT22;9031;50.974;11.330;2023-06-22T08:58:53;28.90;99.90
17815;DHT22;9031;50.974;11.330;2023-06-22T09:01:18;28.80;99.90
17815;DHT22;9031;50.974;11.330;2023-06-22T09:03:44;28.80;99.90
17815;DHT22;9031;50.974;11.330;2023-06-22T09:06:13;29.00;99.90
17815;DHT22;9031;50.974;11.330;2023-06-22T09:08:39;29.40;99.90
17815;DHT22;9031;50.974;11.330;2023-06-22T09:11:05;29.50;99.90
17815;DHT22;9031;50.974;11.330;2023-06-22T09:13:32;29.70;99.90
17815;DHT22;9031;50.974;11.330;2023-06-22T09:15:58;29.80;99.90
17815;DHT22;9031;50.974;11.330;2023-06-22T09:18:23;29.80;99.90
17815;DHT22;9031;50.974;11.330;2023-06-22T09:20:49;29.60;99.90
17815;DHT22;9031;50.974;11.330;2023-06-22T09:23:14;29.70;99.90
17815;DHT22;9031;50.974;11.330;2023-06-22T09:25:40;30.10;99.90
17815;DHT22;9031;50.974;11.330;2023-06-22T09:28:06;30.00;99.90
17815;DHT22;9031;50.974;11.330;2023-06-22T09:30:31;30.30;99.90
17815;DHT22;9031;50.974;11.330;2023-06-22T09:32:57;30.50;99.90
17815;DHT22;9031;50.974;11.330;2023-06-22T09:35:22;30.60;99.90
17815;DHT22;9031;50.974;11.330;2023-06-22T09:37:48;30.70;99.90
17815;DHT22;9031;50.974;11.330;2023-06-22T09:40:13;30.50;99.90
17815;DHT22;9031;50.974;11.330;2023-06-22T09:42:42;30.70;99.90
17815;DHT22;9031;50.974;11.330;2023-06-22T09:45:08;30.50;99.90
17815;DHT22;9031;50.974;11.330;2023-06-22T09:47:33;30.60;99.90
17815;DHT22;9031;50.974;11.330;2023-06-22T09:49:59;30.70;99.90
17815;DHT22;9031;50.974;11.330;2023-06-22T09:52:25;30.80;99.90
17815;DHT22;9031;50.974;11.330;2023-06-22T09:54:51;31.10;99.80
17815;DHT22;9031;50.974;11.330;2023-06-22T09:57:16;31.10;99.20
17815;DHT22;9031;50.974;11.330;2023-06-22T09:59:42;31.10;99.00
17815;DHT22;9031;50.974;11.330;2023-06-22T10:02:08;31.20;98.80
17815;DHT22;9031;50.974;11.330;2023-06-22T10:04:34;31.20;98.20
17815;DHT22;9031;50.974;11.330;2023-06-22T10:07:00;31.30;98.40
17815;DHT22;9031;50.974;11.330;2023-06-22T10:09:26;31.50;98.60
17815;DHT22;9031;50.974;11.330;2023-06-22T10:11:51;31.60;98.20
17815;DHT22;9031;50.974;11.330;2023-06-22T10:14:17;31.50;98.10
17815;DHT22;9031;50.974;11.330;2023-06-22T10:16:42;31.80;97.40
17815;DHT22;9031;50.974;11.330;2023-06-22T10:19:08;32.30;96.40
17815;DHT22;9031;50.974;11.330;2023-06-22T10:21:34;32.40;95.90
17815;DHT22;9031;50.974;11.330;2023-06-22T10:23:59;32.60;95.30
17815;DHT22;9031;50.974;11.330;2023-06-22T10:26:32;32.60;94.50
17815;DHT22;9031;50.974;11.330;2023-06-22T10:28:57;32.40;94.70
17815;DHT22;9031;50.974;11.330;2023-06-22T10:31:22;31.90;95.40
17815;DHT22;9031;50.974;11.330;2023-06-22T10:33:48;32.00;95.50
17815;DHT22;9031;50.974;11.330;2023-06-22T10:36:15;32.20;94.60
17815;DHT22;9031;50.974;11.330;2023-06-22T10:38:40;32.30;94.80
17815;DHT22;9031;50.974;11.330;2023-06-22T10:41:06;32.30;94.00
17815;DHT22;9031;50.974;11.330;2023-06-22T10:43:31;32.50;94.80
17815;DHT22;9031;50.974;11.330;2023-06-22T10:45:57;32.80;94.00
17815;DHT22;9031;50.974;11.330;2023-06-22T10:48:22;32.80;92.80
17815;DHT22;9031;50.974;11.330;2023-06-22T10:50:48;32.40;93.40
17815;DHT22;9031;50.974;11.330;2023-06-22T10:53:13;32.90;93.20
17815;DHT22;9031;50.974;11.330;2023-06-22T10:55:39;33.30;91.50
17815;DHT22;9031;50.974;11.330;2023-06-22T10:58:04;34.20;90.80
17815;DHT22;9031;50.974;11.330;2023-06-22T11:00:30;34.90;88.70
17815;DHT22;9031;50.974;11.330;2023-06-22T11:02:55;34.60;87.10
17815;DHT22;9031;50.974;11.330;2023-06-22T11:05:21;33.90;88.80
17815;DHT22;9031;50.974;11.330;2023-06-22T11:07:46;33.10;90.10
17815;DHT22;9031;50.974;11.330;2023-06-22T11:10:13;32.60;90.80
17815;DHT22;9031;50.974;11.330;2023-06-22T11:12:38;33.30;90.10
17815;DHT22;9031;50.974;11.330;2023-06-22T11:15:04;34.00;88.70
17815;DHT22;9031;50.974;11.330;2023-06-22T11:17:30;34.70;86.40
17815;DHT22;9031;50.974;11.330;2023-06-22T11:19:55;35.60;83.40
17815;DHT22;9031;50.974;11.330;2023-06-22T11:22:21;36.00;81.70
17815;DHT22;9031;50.974;11.330;2023-06-22T11:24:46;36.20;79.70
17815;DHT22;9031;50.974;11.330;2023-06-22T11:27:12;36.30;77.50
17815;DHT22;9031;50.974;11.330;2023-06-22T11:29:37;36.00;76.60
17815;DHT22;9031;50.974;11.330;2023-06-22T11:32:06;36.60;73.80
17815;DHT22;9031;50.974;11.330;2023-06-22T11:34:32;36.60;72.80
17815;DHT22;9031;50.974;11.330;2023-06-22T11:36:58;36.90;72.00
17815;DHT22;9031;50.974;11.330;2023-06-22T11:39:23;37.10;71.50
17815;DHT22;9031;50.974;11.330;2023-06-22T11:41:49;37.80;69.30
17815;DHT22;9031;50.974;11.330;2023-06-22T11:44:14;38.00;68.80
17815;DHT22;9031;50.974;11.330;2023-06-22T11:46:40;38.70;66.60
17815;DHT22;9031;50.974;11.330;2023-06-22T11:49:05;39.40;63.70
17815;DHT22;9031;50.974;11.330;2023-06-22T11:51:31;39.50;61.50
17815;DHT22;9031;50.974;11.330;2023-06-22T11:53:57;39.50;60.70
17815;DHT22;9031;50.974;11.330;2023-06-22T11:56:22;40.10;58.90
17815;DHT22;9031;50.974;11.330;2023-06-22T11:58:48;39.50;60.30
17815;DHT22;9031;50.974;11.330;2023-06-22T12:01:13;39.70;59.70
17815;DHT22;9031;50.974;11.330;2023-06-22T12:03:40;39.20;59.80
17815;DHT22;9031;50.974;11.330;2023-06-22T12:06:06;38.30;61.30
17815;DHT22;9031;50.974;11.330;2023-06-22T12:08:31;37.90;62.50
17815;DHT22;9031;50.974;11.330;2023-06-22T12:10:57;38.30;61.10
17815;DHT22;9031;50.974;11.330;2023-06-22T12:13:22;38.10;62.00
17815;DHT22;9031;50.974;11.330;2023-06-22T12:15:48;37.50;63.30
17815;DHT22;9031;50.974;11.330;2023-06-22T12:18:13;36.90;66.50
17815;DHT22;9031;50.974;11.330;2023-06-22T12:20:40;37.60;61.40
17815;DHT22;9031;50.974;11.330;2023-06-22T12:23:06;38.70;59.70
17815;DHT22;9031;50.974;11.330;2023-06-22T12:25:31;39.30;59.40
17815;DHT22;9031;50.974;11.330;2023-06-22T12:27:56;38.90;59.80
17815;DHT22;9031;50.974;11.330;2023-06-22T12:30:22;39.00;59.90
17815;DHT22;9031;50.974;11.330;2023-06-22T12:32:48;39.10;58.80
17815;DHT22;9031;50.974;11.330;2023-06-22T12:35:13;39.10;57.40
17815;DHT22;9031;50.974;11.330;2023-06-22T12:37:42;39.20;57.70
17815;DHT22;9031;50.974;11.330;2023-06-22T12:40:08;39.40;58.20
17815;DHT22;9031;50.974;11.330;2023-06-22T12:42:34;39.30;57.30
17815;DHT22;9031;50.974;11.330;2023-06-22T12:44:59;39.40;56.80
17815;DHT22;9031;50.974;11.330;2023-06-22T12:47:25;39.10;56.50
17815;DHT22;9031;50.974;11.330;2023-06-22T12:49:50;39.10;56.20
17815;DHT22;9031;50.974;11.330;2023-06-22T12:52:16;39.70;56.00
17815;DHT22;9031;50.974;11.330;2023-06-22T12:54:41;39.50;56.80
17815;DHT22;9031;50.974;11.330;2023-06-22T12:57:07;39.30;57.40
17815;DHT22;9031;50.974;11.330;2023-06-22T12:59:32;39.30;56.10
17815;DHT22;9031;50.974;11.330;2023-06-22T13:01:58;40.10;55.50
17815;DHT22;9031;50.974;11.330;2023-06-22T13:04:23;40.30;54.40
17815;DHT22;9031;50.974;11.330;2023-06-22T13:06:49;39.00;56.40
17815;DHT22;9031;50.974;11.330;2023-06-22T13:09:15;38.50;56.40
17815;DHT22;9031;50.974;11.330;2023-06-22T13:11:42;37.30;59.40
17815;DHT22;9031;50.974;11.330;2023-06-22T13:14:08;36.70;60.50
17815;DHT22;9031;50.974;11.330;2023-06-22T13:16:33;36.00;62.30
17815;DHT22;9031;50.974;11.330;2023-06-22T13:18:59;35.50;64.30
17815;DHT22;9031;50.974;11.330;2023-06-22T13:21:24;35.00;65.70
17815;DHT22;9031;50.974;11.330;2023-06-22T13:23:50;34.80;66.20
17815;DHT22;9031;50.974;11.330;2023-06-22T13:26:15;35.00;66.10
17815;DHT22;9031;50.974;11.330;2023-06-22T13:28:41;35.00;66.30
17815;DHT22;9031;50.974;11.330;2023-06-22T13:31:06;34.60;67.60
17815;DHT22;9031;50.974;11.330;2023-06-22T13:33:32;34.20;67.30
17815;DHT22;9031;50.974;11.330;2023-06-22T13:35:57;33.80;68.10
17815;DHT22;9031;50.974;11.330;2023-06-22T13:38:23;33.30;71.00
17815;DHT22;9031;50.974;11.330;2023-06-22T13:40:49;33.00;72.20
17815;DHT22;9031;50.974;11.330;2023-06-22T13:43:15;33.10;72.20
17815;DHT22;9031;50.974;11.330;2023-06-22T13:45:41;33.50;71.40
17815;DHT22;9031;50.974;11.330;2023-06-22T13:48:07;33.60;72.10
17815;DHT22;9031;50.974;11.330;2023-06-22T13:50:32;34.00;71.40
17815;DHT22;9031;50.974;11.330;2023-06-22T13:52:58;35.70;67.10
17815;DHT22;9031;50.974;11.330;2023-06-22T13:55:23;37.10;64.40
17815;DHT22;9031;50.974;11.330;2023-06-22T13:57:49;37.40;62.80
17815;DHT22;9031;50.974;11.330;2023-06-22T14:00:15;37.70;63.10
17815;DHT22;9031;50.974;11.330;2023-06-22T14:02:41;37.70;61.10
17815;DHT22;9031;50.974;11.330;2023-06-22T14:05:07;37.50;61.20
17815;DHT22;9031;50.974;11.330;2023-06-22T14:07:33;37.70;61.20
17815;DHT22;9031;50.974;11.330;2023-06-22T14:10:00;37.80;61.20
17815;DHT22;9031;50.974;11.330;2023-06-22T14:12:26;38.00;60.40
17815;DHT22;9031;50.974;11.330;2023-06-22T14:14:51;38.10;58.80
17815;DHT22;9031;50.974;11.330;2023-06-22T14:17:17;37.90;58.60
17815;DHT22;9031;50.974;11.330;2023-06-22T14:19:43;37.40;58.80
17815;DHT22;9031;50.974;11.330;2023-06-22T14:22:08;36.90;60.10
17815;DHT22;9031;50.974;11.330;2023-06-22T14:24:34;36.60;60.00
17815;DHT22;9031;50.974;11.330;2023-06-22T14:26:59;37.40;60.10
17815;DHT22;9031;50.974;11.330;2023-06-22T14:29:27;37.80;58.90
17815;DHT22;9031;50.974;11.330;2023-06-22T14:31:53;36.90;60.40
17815;DHT22;9031;50.974;11.330;2023-06-22T14:34:19;36.60;61.70
17815;DHT22;9031;50.974;11.330;2023-06-22T14:36:44;36.50;62.70
17815;DHT22;9031;50.974;11.330;2023-06-22T14:39:10;37.10;61.40
17815;DHT22;9031;50.974;11.330;2023-06-22T14:41:35;37.40;59.70
17815;DHT22;9031;50.974;11.330;2023-06-22T14:44:01;38.20;59.60
17815;DHT22;9031;50.974;11.330;2023-06-22T14:46:27;38.10;58.60
17815;DHT22;9031;50.974;11.330;2023-06-22T14:48:52;38.30;58.80
17815;DHT22;9031;50.974;11.330;2023-06-22T14:51:18;38.40;58.70
17815;DHT22;9031;50.974;11.330;2023-06-22T14:53:44;36.90;60.40
17815;DHT22;9031;50.974;11.330;2023-06-22T14:56:10;35.70;63.70
17815;DHT22;9031;50.974;11.330;2023-06-22T14:58:35;34.90;65.40
17815;DHT22;9031;50.974;11.330;2023-06-22T15:01:02;34.50;66.30
17815;DHT22;9031;50.974;11.330;2023-06-22T15:03:29;34.50;68.70
17815;DHT22;9031;50.974;11.330;2023-06-22T15:05:56;35.10;65.80
17815;DHT22;9031;50.974;11.330;2023-06-22T15:08:22;35.60;64.70
17815;DHT22;9031;50.974;11.330;2023-06-22T15:10:47;36.40;63.10
17815;DHT22;9031;50.974;11.330;2023-06-22T15:13:13;37.60;60.70
17815;DHT22;9031;50.974;11.330;2023-06-22T15:15:38;37.60;59.40
17815;DHT22;9031;50.974;11.330;2023-06-22T15:18:04;37.80;59.40
17815;DHT22;9031;50.974;11.330;2023-06-22T15:20:30;38.00;59.40
17815;DHT22;9031;50.974;11.330;2023-06-22T15:22:57;37.70;58.90
17815;DHT22;9031;50.974;11.330;2023-06-22T15:25:23;37.70;59.20
17815;DHT22;9031;50.974;11.330;2023-06-22T15:27:48;37.10;60.80
17815;DHT22;9031;50.974;11.330;2023-06-22T15:30:14;37.30;60.60